createdAt,value
2022-10-18T00:02:05.129Z,97252.72
2022-10-18T00:04:33.735Z,97250.25
2022-10-18T00:07:02.406Z,97242.44
2022-10-18T00:09:30.798Z,97245.28
2022-10-18T00:12:00.811Z,97240.97
2022-10-18T00:14:29.191Z,97244.78
2022-10-18T00:16:57.551Z,97243.31
2022-10-18T00:19:28.586Z,97244.31
2022-10-18T00:21:57.803Z,97241.66
2022-10-18T00:24:26.188Z,97245.66
2022-10-18T00:26:54.568Z,97241.31
2022-10-18T00:29:24.300Z,97238.81
2022-10-18T00:31:52.671Z,97240.16
2022-10-18T00:34:21.047Z,97241.53
2022-10-18T00:36:49.443Z,97236.75
2022-10-18T00:39:19.629Z,97229.91
2022-10-18T00:41:48.948Z,97234.41
2022-10-18T00:44:54.725Z,97236.91
2022-10-18T00:47:24.520Z,97230.06
2022-10-18T00:49:57.032Z,97234.91
2022-10-18T00:52:29.690Z,97233.06
2022-10-18T00:54:59.227Z,97228.19
2022-10-18T00:57:27.969Z,97227.19
2022-10-18T00:59:56.745Z,97224.72
2022-10-18T01:02:27.338Z,97222.38
2022-10-18T01:04:55.707Z,97223.75
2022-10-18T01:07:37.311Z,97225.75
2022-10-18T01:10:15.207Z,97228.78
2022-10-18T01:12:53.546Z,97213.97
2022-10-18T01:15:27.982Z,97217.47
2022-10-18T01:18:03.911Z,97213.97
2022-10-18T01:20:58.637Z,97220.50
2022-10-18T01:23:46.291Z,97222.31
2022-10-18T01:26:31.201Z,97226.16
2022-10-18T01:29:10.805Z,97231.19
2022-10-18T01:31:44.719Z,97230.88
2022-10-18T01:34:16.684Z,97227.09
2022-10-18T01:36:49.410Z,97222.94
2022-10-18T01:39:22.591Z,97219.63
2022-10-18T01:41:52.655Z,97225.47
2022-10-18T01:44:30.536Z,97223.63
2022-10-18T01:47:00.983Z,97222.63
2022-10-18T01:49:29.327Z,97225.94
2022-10-18T01:51:57.764Z,97224.09
2022-10-18T01:54:32.068Z,97218.28
2022-10-18T01:57:06.563Z,97222.97
2022-10-18T01:59:47.278Z,97218.66
2022-10-18T02:02:28.986Z,97211.47
2022-10-18T02:05:04.232Z,97212.97
2022-10-18T02:07:38.348Z,97216.28
2022-10-18T02:10:12.063Z,97218.28
2022-10-18T02:12:43.725Z,97218.66
2022-10-18T02:15:16.036Z,97226.00
2022-10-18T02:17:47.235Z,97235.34
2022-10-18T02:20:21.786Z,97234.84
2022-10-18T02:22:52.031Z,97235.00
2022-10-18T02:25:24.931Z,97240.19
2022-10-18T02:27:54.339Z,97227.03
2022-10-18T02:30:26.154Z,97231.00
2022-10-18T02:33:03.100Z,97232.16
2022-10-18T02:35:36.558Z,97234.63
2022-10-18T02:38:06.528Z,97227.81
2022-10-18T02:40:35.048Z,97232.66
2022-10-18T02:43:04.168Z,97231.88
2022-10-18T02:45:32.728Z,97239.72
2022-10-18T02:48:02.571Z,97227.88
2022-10-18T02:50:30.939Z,97228.88
2022-10-18T02:52:59.319Z,97237.41
2022-10-18T02:57:56.992Z,97249.19
2022-10-18T03:00:25.374Z,97243.88
2022-10-18T03:02:53.986Z,97247.53
2022-10-18T03:05:23.736Z,97245.72
2022-10-18T03:07:52.089Z,97252.03
2022-10-18T03:10:20.411Z,97248.38
2022-10-18T03:12:48.787Z,97259.53
2022-10-18T03:15:17.461Z,97248.72
2022-10-18T03:17:45.796Z,97237.91
2022-10-18T03:20:14.129Z,97237.25
2022-10-18T03:22:43.825Z,97235.78
2022-10-18T03:25:12.179Z,97244.75
2022-10-18T03:27:40.549Z,97245.78
2022-10-18T03:30:11.747Z,97252.44
2022-10-18T03:32:40.559Z,97247.78
2022-10-18T03:35:10.228Z,97253.78
2022-10-18T03:37:39.251Z,97247.44
2022-10-18T03:40:10.687Z,97242.94
2022-10-18T03:42:39.319Z,97252.94
2022-10-18T03:45:08.828Z,97255.28
2022-10-18T03:47:37.148Z,97254.78
2022-10-18T03:50:07.292Z,97254.78
2022-10-18T03:52:35.931Z,97234.34
2022-10-18T03:55:04.612Z,97237.84
2022-10-18T03:57:34.471Z,97234.88
2022-10-18T04:00:02.867Z,97229.88
2022-10-18T04:02:31.470Z,97228.69
2022-10-18T04:04:59.947Z,97229.88
2022-10-18T04:07:28.421Z,97226.53
2022-10-18T04:09:56.801Z,97222.53
2022-10-18T04:12:25.173Z,97224.72
2022-10-18T04:14:55.715Z,97212.91
2022-10-18T04:17:24.399Z,97231.19
2022-10-18T04:19:52.768Z,97236.34
2022-10-18T04:22:21.112Z,97242.81
2022-10-18T04:24:49.487Z,97247.47
2022-10-18T04:27:17.845Z,97234.19
2022-10-18T04:29:46.276Z,97239.50
2022-10-18T04:32:16.024Z,97233.19
2022-10-18T04:34:44.376Z,97230.69
2022-10-18T04:37:13.365Z,97229.69
2022-10-18T04:39:49.789Z,97238.50
2022-10-18T04:42:21.112Z,97241.84
2022-10-18T04:44:49.724Z,97242.34
2022-10-18T04:47:19.547Z,97248.81
2022-10-18T04:49:48.143Z,97251.81
2022-10-18T04:52:16.514Z,97264.78
2022-10-18T04:54:44.863Z,97260.97
2022-10-18T04:57:13.247Z,97269.72
2022-10-18T04:59:41.715Z,97255.44
2022-10-18T05:02:10.072Z,97254.13
2022-10-18T05:04:39.800Z,97255.22
2022-10-18T05:07:08.184Z,97263.69
2022-10-18T05:09:36.572Z,97265.53
2022-10-18T05:12:05.237Z,97264.25
2022-10-18T05:14:33.616Z,97268.22
2022-10-18T05:17:02.053Z,97269.72
2022-10-18T05:19:30.403Z,97278.50
2022-10-18T05:22:00.056Z,97273.50
2022-10-18T05:24:28.645Z,97280.78
2022-10-18T05:26:57.033Z,97300.66
2022-10-18T05:29:25.599Z,97298.44
2022-10-18T05:31:53.943Z,97303.03
2022-10-18T05:34:22.571Z,97304.50
2022-10-18T05:36:51.092Z,97302.44
2022-10-18T05:39:23.832Z,97298.41
2022-10-18T05:41:52.329Z,97298.63
2022-10-18T05:44:21.464Z,97299.03
2022-10-18T05:46:49.790Z,97298.91
2022-10-18T05:49:18.133Z,97296.41
2022-10-18T05:51:46.509Z,97293.75
2022-10-18T05:54:18.179Z,97293.38
2022-10-18T05:56:48.116Z,97304.66
2022-10-18T05:59:16.380Z,97303.44
2022-10-18T06:01:45.538Z,97306.59
2022-10-18T06:04:13.983Z,97304.31
2022-10-18T06:06:42.373Z,97294.91
2022-10-18T06:09:10.880Z,97301.09
2022-10-18T06:11:39.290Z,97289.00
2022-10-18T06:14:10.821Z,97290.19
2022-10-18T06:16:39.209Z,97287.53
2022-10-18T06:19:07.791Z,97288.56
2022-10-18T06:21:36.135Z,97290.06
2022-10-18T06:24:04.904Z,97285.78
2022-10-18T06:26:33.279Z,97282.69
2022-10-18T06:29:01.765Z,97298.50
2022-10-18T06:31:31.533Z,97280.72
2022-10-18T06:34:00.099Z,97290.53
2022-10-18T06:36:28.843Z,97285.56
2022-10-18T06:38:57.654Z,97286.53
2022-10-18T06:41:26.123Z,97293.88
2022-10-18T06:43:57.725Z,97288.06
2022-10-18T06:46:27.470Z,97287.53
2022-10-18T06:48:57.632Z,97296.38
2022-10-18T06:51:26.002Z,97301.19
2022-10-18T06:54:06.286Z,97315.00
2022-10-18T06:56:42.627Z,97321.47
2022-10-18T06:59:11.017Z,97314.34
2022-10-18T07:01:39.630Z,97302.66
2022-10-18T07:04:09.376Z,97301.66
2022-10-18T07:06:38.195Z,97305.16
2022-10-18T07:09:06.552Z,97297.81
2022-10-18T07:11:34.925Z,97302.31
2022-10-18T07:14:05.621Z,97294.28
2022-10-18T07:16:35.244Z,97295.91
2022-10-18T07:19:03.631Z,97307.19
2022-10-18T07:21:33.405Z,97302.31
2022-10-18T07:24:02.478Z,97309.28
2022-10-18T07:26:33.644Z,97305.56
2022-10-18T07:29:06.616Z,97317.00
2022-10-18T07:31:35.419Z,97305.00
2022-10-18T07:34:05.129Z,97292.97
2022-10-18T07:36:35.616Z,97297.63
2022-10-18T07:39:04.080Z,97306.06
2022-10-18T07:41:34.078Z,97314.28
2022-10-18T07:44:03.130Z,97310.59
2022-10-18T07:46:31.530Z,97303.38
2022-10-18T07:49:00.267Z,97307.63
2022-10-18T07:51:30.900Z,97311.44
2022-10-18T07:54:00.668Z,97314.09
2022-10-18T07:56:29.035Z,97318.88
2022-10-18T07:58:57.585Z,97309.03
2022-10-18T08:01:26.330Z,97309.41
2022-10-18T08:03:55.324Z,97309.59
2022-10-18T08:06:24.704Z,97311.59
2022-10-18T08:08:53.436Z,97304.59
2022-10-18T08:11:25.032Z,97308.75
2022-10-18T08:13:54.740Z,97306.75
2022-10-18T08:16:25.651Z,97315.03
2022-10-18T08:18:55.082Z,97313.00
2022-10-18T08:21:23.468Z,97314.31
2022-10-18T08:23:53.740Z,97312.75
2022-10-18T08:26:24.069Z,97306.81
2022-10-18T08:29:09.907Z,97311.00
2022-10-18T08:31:41.587Z,97319.72
2022-10-18T08:34:09.959Z,97322.47
2022-10-18T08:36:38.750Z,97323.13
2022-10-18T08:39:07.142Z,97330.13
2022-10-18T08:42:00.468Z,97319.44
2022-10-18T08:44:31.483Z,97318.72
2022-10-18T08:47:04.246Z,97312.09
2022-10-18T08:49:45.551Z,97314.69
2022-10-18T08:52:22.244Z,97317.91
2022-10-18T08:55:00.528Z,97315.25
2022-10-18T08:57:31.893Z,97311.91
2022-10-18T09:00:00.788Z,97326.47
2022-10-18T09:02:40.361Z,97311.41
2022-10-18T09:05:22.357Z,97307.38
2022-10-18T09:08:09.632Z,97326.19
2022-10-18T09:10:47.434Z,97305.25
2022-10-18T09:13:39.652Z,97307.72
2022-10-18T09:16:12.012Z,97305.25
2022-10-18T09:18:57.330Z,97305.44
2022-10-18T09:21:38.089Z,97301.34
2022-10-18T09:24:13.438Z,97307.84
2022-10-18T09:26:46.029Z,97315.41
2022-10-18T09:29:33.377Z,97307.25
2022-10-18T09:32:06.596Z,97300.25
2022-10-18T09:34:40.961Z,97300.44
2022-10-18T09:37:14.159Z,97300.25
2022-10-18T09:39:43.265Z,97292.84
2022-10-18T09:42:18.411Z,97289.66
2022-10-18T09:44:52.737Z,97289.97
2022-10-18T09:47:25.775Z,97288.84
2022-10-18T09:49:58.643Z,97293.91
2022-10-18T09:52:33.827Z,97298.22
2022-10-18T09:55:10.055Z,97289.75
2022-10-18T09:57:44.533Z,97285.81
2022-10-18T10:00:20.199Z,97285.00
2022-10-18T10:02:48.583Z,97285.09
2022-10-18T10:05:17.192Z,97282.72
2022-10-18T10:07:48.195Z,97284.81
2022-10-18T10:10:21.524Z,97290.19
2022-10-18T10:13:03.109Z,97288.56
2022-10-18T10:15:38.175Z,97281.59
2022-10-18T10:18:20.641Z,97283.09
2022-10-18T10:20:52.768Z,97269.56
2022-10-18T10:23:24.064Z,97278.47
2022-10-18T10:25:54.115Z,97290.06
2022-10-18T10:28:27.228Z,97275.25
2022-10-18T10:31:26.903Z,97271.94
2022-10-18T10:34:02.502Z,97276.72
2022-10-18T10:36:32.297Z,97268.84
2022-10-18T10:39:05.781Z,97272.78
2022-10-18T10:41:35.205Z,97266.00
2022-10-18T10:44:06.199Z,97267.41
2022-10-18T10:46:37.695Z,97263.47
2022-10-18T10:52:08.875Z,97259.94
2022-10-18T10:54:51.315Z,97253.47
2022-10-18T10:57:24.704Z,97249.69
2022-10-18T10:59:55.124Z,97245.75
2022-10-18T11:02:31.210Z,97239.94
2022-10-18T11:05:22.697Z,97240.16
2022-10-18T11:07:56.004Z,97241.41
2022-10-18T11:10:27.450Z,97236.25
2022-10-18T11:13:04.373Z,97229.78
2022-10-18T11:15:39.712Z,97238.84
2022-10-18T11:18:19.996Z,97227.38
2022-10-18T11:20:53.035Z,97221.34
2022-10-18T11:23:24.588Z,97222.75
2022-10-18T11:26:12.437Z,97210.47
2022-10-18T11:29:22.907Z,97210.00
2022-10-18T11:32:02.993Z,97202.66
2022-10-18T11:34:50.003Z,97206.13
2022-10-18T11:37:38.690Z,97196.53
2022-10-18T11:40:25.893Z,97204.09
2022-10-18T11:43:03.724Z,97200.66
2022-10-18T11:45:43.616Z,97197.47
2022-10-18T11:48:39.323Z,97189.13
2022-10-18T11:51:16.489Z,97189.03
2022-10-18T11:54:02.027Z,97193.25
2022-10-18T11:56:43.636Z,97187.16
2022-10-18T11:59:30.341Z,97182.06
2022-10-18T12:02:17.499Z,97175.47
2022-10-18T12:05:11.890Z,97173.19
2022-10-18T12:07:56.639Z,97163.31
2022-10-18T12:10:38.002Z,97164.78
2022-10-18T12:13:19.483Z,97164.00
2022-10-18T12:15:49.561Z,97162.22
2022-10-18T12:18:22.578Z,97171.38
2022-10-18T12:20:54.300Z,97164.19
2022-10-18T12:23:34.627Z,97161.47
2022-10-18T12:26:05.445Z,97164.13
2022-10-18T12:28:42.911Z,97150.63
2022-10-18T12:31:23.084Z,97146.25
2022-10-18T12:33:56.211Z,97147.69
2022-10-18T12:36:40.303Z,97149.66
2022-10-18T12:39:13.728Z,97148.28
2022-10-18T12:41:42.241Z,97144.88
2022-10-18T12:44:21.295Z,97147.50
2022-10-18T12:46:51.672Z,97139.94
2022-10-18T12:49:24.912Z,97140.66
2022-10-18T12:51:55.898Z,97141.56
2022-10-18T12:54:29.927Z,97142.91
2022-10-18T12:56:59.750Z,97136.75
2022-10-18T12:59:54.780Z,97134.97
2022-10-18T13:02:26.788Z,97134.03
2022-10-18T13:04:56.820Z,97135.81
2022-10-18T13:07:41.090Z,97135.34
2022-10-18T13:10:45.457Z,97137.47
2022-10-18T13:13:39.650Z,97140.84
2022-10-18T13:16:25.252Z,97140.53
2022-10-18T13:18:57.126Z,97129.06
2022-10-18T13:21:41.368Z,97138.41
2022-10-18T13:24:30.709Z,97127.13
2022-10-18T13:27:42.119Z,97118.13
2022-10-18T13:30:25.341Z,97130.06
2022-10-18T13:33:01.850Z,97129.25
2022-10-18T13:35:52.163Z,97124.94
2022-10-18T13:39:02.366Z,97123.56
2022-10-18T13:41:34.548Z,97122.66
2022-10-18T13:44:28.335Z,97120.66
2022-10-18T13:47:44.254Z,97112.44
2022-10-18T13:50:28.005Z,97120.78
2022-10-18T13:53:38.194Z,97123.47
2022-10-18T13:56:32.937Z,97117.63
2022-10-18T13:59:20.265Z,97124.66
2022-10-18T14:02:06.195Z,97123.84
2022-10-18T14:05:16.549Z,97122.81
2022-10-18T14:07:50.559Z,97123.38
2022-10-18T14:10:43.335Z,97122.09
2022-10-18T14:13:21.263Z,97126.56
2022-10-18T14:15:53.593Z,97127.72
2022-10-18T14:18:31.766Z,97123.53
2022-10-18T14:21:13.997Z,97126.00
2022-10-18T14:23:45.723Z,97112.72
2022-10-18T14:26:16.669Z,97119.16
2022-10-18T14:28:59.642Z,97123.75
2022-10-18T14:31:29.452Z,97120.66
2022-10-18T14:34:00.083Z,97112.19
2022-10-18T14:36:31.770Z,97111.69
2022-10-18T14:39:02.204Z,97106.06
2022-10-18T14:41:32.827Z,97110.16
2022-10-18T14:44:20.394Z,97111.59
2022-10-18T14:46:51.415Z,97111.44
2022-10-18T14:49:21.864Z,97104.38
2022-10-18T14:51:52.715Z,97107.63
2022-10-18T14:54:27.614Z,97104.84
2022-10-18T14:57:00.595Z,97109.59
2022-10-18T14:59:31.831Z,97111.44
2022-10-18T15:02:05.028Z,97107.84
2022-10-18T15:04:40.500Z,97111.91
2022-10-18T15:07:15.737Z,97106.78
2022-10-18T15:09:45.640Z,97107.09
2022-10-18T15:12:16.032Z,97100.31
2022-10-18T15:14:45.547Z,97113.28
2022-10-18T15:17:17.039Z,97109.00
2022-10-18T15:20:05.076Z,97108.84
2022-10-18T15:22:35.538Z,97103.53
2022-10-18T15:25:15.685Z,97108.75
2022-10-18T15:27:47.159Z,97106.56
2022-10-18T15:30:19.948Z,97098.31
2022-10-18T15:32:51.055Z,97107.88
2022-10-18T15:35:26.590Z,97105.88
2022-10-18T15:37:56.944Z,97104.06
2022-10-18T15:40:34.936Z,97107.19
2022-10-18T15:43:06.676Z,97105.75
2022-10-18T15:45:38.621Z,97105.56
2022-10-18T15:48:22.757Z,97108.50
2022-10-18T15:50:54.342Z,97111.28
2022-10-18T15:53:51.581Z,97111.09
2022-10-18T15:56:33.019Z,97118.16
2022-10-18T15:59:04.606Z,97122.94
2022-10-18T16:01:38.321Z,97115.53
2022-10-18T16:04:14.620Z,97119.47
2022-10-18T16:06:44.281Z,97116.63
2022-10-18T16:09:17.040Z,97127.78
2022-10-18T16:11:45.674Z,97132.16
2022-10-18T16:14:14.537Z,97132.22
2022-10-18T16:16:43.341Z,97132.03
2022-10-18T16:19:15.620Z,97146.94
2022-10-18T16:21:46.143Z,97153.78
2022-10-18T16:24:14.508Z,97157.72
2022-10-18T16:26:43.072Z,97155.25
2022-10-18T16:29:15.591Z,97154.22
2022-10-18T16:31:44.312Z,97157.34
2022-10-18T16:34:14.752Z,97163.94
2022-10-18T16:36:43.108Z,97167.91
2022-10-18T16:39:16.252Z,97160.50
2022-10-18T16:41:44.690Z,97171.22
2022-10-18T16:44:13.547Z,97169.78
2022-10-18T16:46:41.999Z,97178.09
2022-10-18T16:51:48.465Z,97179.59
2022-10-18T16:54:18.152Z,97182.72
2022-10-18T16:56:47.688Z,97188.69
2022-10-18T16:59:21.768Z,97178.38
2022-10-18T17:01:50.129Z,97187.88
2022-10-18T17:04:18.584Z,97189.09
2022-10-18T17:06:47.564Z,97190.16
2022-10-18T17:09:17.684Z,97197.59
2022-10-18T17:11:47.411Z,97201.44
2022-10-18T17:14:15.738Z,97207.25
2022-10-18T17:16:46.662Z,97207.25
2022-10-18T17:19:18.523Z,97212.63
2022-10-18T17:21:46.863Z,97208.06
2022-10-18T17:24:15.320Z,97210.75
2022-10-18T17:26:43.982Z,97207.66
2022-10-18T17:29:14.842Z,97219.63
2022-10-18T17:31:43.278Z,97206.59
2022-10-18T17:34:11.628Z,97215.72
2022-10-18T17:36:39.975Z,97217.78
2022-10-18T17:39:08.735Z,97214.66
2022-10-18T17:41:37.132Z,97222.72
2022-10-18T17:44:06.328Z,97217.53
2022-10-18T17:46:36.129Z,97224.78
2022-10-18T17:49:05.333Z,97227.66
2022-10-18T17:51:33.709Z,97226.84
2022-10-18T17:54:02.047Z,97229.53
2022-10-18T17:56:33.459Z,97235.72
2022-10-18T17:59:03.811Z,97235.72
2022-10-18T18:01:32.274Z,97243.56
2022-10-18T18:04:03.307Z,97236.53
2022-10-18T18:06:34.039Z,97237.16
2022-10-18T18:09:06.931Z,97238.81
2022-10-18T18:11:36.123Z,97237.16
2022-10-18T18:14:08.831Z,97240.69
2022-10-18T18:16:38.216Z,97248.50
2022-10-18T18:19:09.819Z,97248.31
2022-10-18T18:21:39.197Z,97253.69
2022-10-18T18:24:08.803Z,97249.78
2022-10-18T18:26:38.501Z,97253.91
2022-10-18T18:29:07.263Z,97249.56
2022-10-18T18:31:40.128Z,97248.13
2022-10-18T18:34:12.285Z,97248.94
2022-10-18T18:36:40.689Z,97243.78
2022-10-18T18:39:10.166Z,97242.94
2022-10-18T18:41:38.643Z,97248.75
2022-10-18T18:44:07.674Z,97245.44
2022-10-18T18:46:38.812Z,97243.56
2022-10-18T18:49:08.315Z,97249.56
2022-10-18T18:51:39.668Z,97240.84
2022-10-18T18:54:08.679Z,97245.41
2022-10-18T18:56:37.281Z,97252.41
2022-10-18T18:59:06.308Z,97244.13
2022-10-18T19:01:37.264Z,97243.28
2022-10-18T19:04:07.087Z,97244.94
2022-10-18T19:06:40.263Z,97239.56
2022-10-18T19:09:13.174Z,97245.97
2022-10-18T19:11:41.585Z,97245.56
2022-10-18T19:14:09.965Z,97251.53
2022-10-18T19:16:40.282Z,97248.66
2022-10-18T19:19:12.503Z,97252.59
2022-10-18T19:21:44.310Z,97248.03
2022-10-18T19:24:12.918Z,97250.09
2022-10-18T19:26:44.876Z,97245.13
2022-10-18T19:29:15.433Z,97243.69
2022-10-18T19:31:43.891Z,97247.59
2022-10-18T19:34:14.986Z,97246.31
2022-10-18T19:36:46.285Z,97245.50
2022-10-18T19:39:18.318Z,97244.69
2022-10-18T19:41:47.901Z,97245.31
2022-10-18T19:44:16.852Z,97251.09
2022-10-18T19:46:45.449Z,97250.91
2022-10-18T19:49:13.801Z,97244.69
2022-10-18T19:51:42.550Z,97245.53
2022-10-18T19:54:12.885Z,97242.44
2022-10-18T19:56:42.252Z,97246.97
2022-10-18T19:59:11.904Z,97251.09
2022-10-18T20:01:40.426Z,97247.16
2022-10-18T20:04:09.516Z,97250.03
2022-10-18T20:06:39.076Z,97258.72
2022-10-18T20:09:08.142Z,97251.69
2022-10-18T20:11:37.960Z,97257.91
2022-10-18T20:14:06.517Z,97265.50
2022-10-18T20:16:35.323Z,97263.41
2022-10-18T20:19:06.981Z,97264.22
2022-10-18T20:21:36.879Z,97265.44
2022-10-18T20:24:05.921Z,97268.31
2022-10-18T20:26:35.747Z,97266.88
2022-10-18T20:29:05.914Z,97266.25
2022-10-18T20:31:39.400Z,97268.09
2022-10-18T20:34:11.490Z,97273.03
2022-10-18T20:36:42.039Z,97277.75
2022-10-18T20:39:10.956Z,97276.25
2022-10-18T20:41:41.226Z,97272.56
2022-10-18T20:44:15.971Z,97271.13
2022-10-18T20:46:45.170Z,97276.47
2022-10-18T20:49:16.034Z,97269.44
2022-10-18T20:51:44.588Z,97271.69
2022-10-18T20:54:13.794Z,97273.31
2022-10-18T20:56:42.574Z,97271.59
2022-10-18T20:59:12.450Z,97270.16
2022-10-18T21:01:40.869Z,97275.53
2022-10-18T21:04:11.111Z,97278.56
2022-10-18T21:06:41.359Z,97281.84
2022-10-18T21:09:12.213Z,97282.03
2022-10-18T21:11:43.411Z,97285.97
2022-10-18T21:14:16.357Z,97279.16
2022-10-18T21:16:45.898Z,97273.78
2022-10-18T21:19:16.452Z,97272.38
2022-10-18T21:21:46.363Z,97282.69
2022-10-18T21:24:15.162Z,97266.41
2022-10-18T21:26:43.886Z,97274.25
2022-10-18T21:29:18.134Z,97268.28
2022-10-18T21:31:49.346Z,97274.63
2022-10-18T21:34:18.513Z,97272.16
2022-10-18T21:36:48.809Z,97274.41
2022-10-18T21:39:19.892Z,97273.38
2022-10-18T21:41:48.710Z,97265.34
2022-10-18T21:44:18.585Z,97265.53
2022-10-18T21:46:47.671Z,97257.72
2022-10-18T21:49:16.615Z,97253.75
2022-10-18T21:51:45.600Z,97254.16
2022-10-18T21:54:16.443Z,97252.03
2022-10-18T21:56:45.047Z,97255.13
2022-10-18T21:59:14.124Z,97248.94
2022-10-18T22:01:45.133Z,97249.78
2022-10-18T22:04:24.548Z,97244.31
2022-10-18T22:06:53.134Z,97250.53
2022-10-18T22:09:22.225Z,97244.59
2022-10-18T22:11:53.296Z,97252.22
2022-10-18T22:14:22.295Z,97252.03
2022-10-18T22:16:52.405Z,97245.66
2022-10-18T22:19:21.371Z,97245.84
2022-10-18T22:21:50.107Z,97243.16
2022-10-18T22:24:19.152Z,97245.00
2022-10-18T22:26:47.792Z,97232.88
2022-10-18T22:29:17.927Z,97226.09
2022-10-18T22:31:48.485Z,97223.19
2022-10-18T22:34:19.868Z,97225.47
2022-10-18T22:36:48.260Z,97216.56
2022-10-18T22:39:16.882Z,97225.59
2022-10-18T22:41:46.518Z,97219.88
2022-10-18T22:44:15.771Z,97232.25
2022-10-18T22:46:44.307Z,97228.91
2022-10-18T22:49:13.607Z,97230.34
2022-10-18T22:51:43.340Z,97221.72
2022-10-18T22:54:11.929Z,97225.47
2022-10-18T22:56:40.421Z,97222.38
2022-10-18T22:59:08.792Z,97220.50
2022-10-18T23:01:37.468Z,97228.16
2022-10-18T23:04:09.200Z,97215.41
2022-10-18T23:06:44.016Z,97223.25
2022-10-18T23:09:12.749Z,97221.19
2022-10-18T23:11:41.143Z,97217.69
2022-10-18T23:14:09.908Z,97219.53
2022-10-18T23:16:38.787Z,97215.81
2022-10-18T23:19:07.559Z,97210.66
2022-10-18T23:21:35.981Z,97219.75
2022-10-18T23:24:05.836Z,97206.97
2022-10-18T23:26:34.583Z,97212.97
2022-10-18T23:29:03.075Z,97213.78
2022-10-18T23:31:33.440Z,97209.84
2022-10-18T23:34:03.623Z,97204.66
2022-10-18T23:36:33.218Z,97209.16
2022-10-18T23:39:03.096Z,97202.59
2022-10-18T23:41:32.916Z,97199.06
2022-10-18T23:44:02.402Z,97213.31
2022-10-18T23:46:30.720Z,97216.00
2022-10-18T23:48:59.070Z,97213.91
2022-10-18T23:51:27.368Z,97211.00
2022-10-18T23:53:55.711Z,97214.06
2022-10-18T23:56:24.036Z,97214.88
2022-10-18T23:58:53.715Z,97205.22
